sensor_id;sensor_type;location;lat;lon;timestamp;temperature;humidity
20598;DHT22;10457;48.770;11.446;2023-02-18T00:00:06;11.30;92.80
20598;DHT22;10457;48.770;11.446;2023-02-18T00:05:30;11.20;93.40
20598;DHT22;10457;48.770;11.446;2023-02-18T00:10:52;11.20;93.60
20598;DHT22;10457;48.770;11.446;2023-02-18T00:16:14;11.20;94.30
20598;DHT22;10457;48.770;11.446;2023-02-18T00:21:36;11.20;95.20
20598;DHT22;10457;48.770;11.446;2023-02-18T00:26:57;11.10;96.00
20598;DHT22;10457;48.770;11.446;2023-02-18T00:32:20;11.10;96.00
20598;DHT22;10457;48.770;11.446;2023-02-18T00:37:41;11.10;96.20
20598;DHT22;10457;48.770;11.446;2023-02-18T00:43:03;11.00;96.80
20598;DHT22;10457;48.770;11.446;2023-02-18T00:48:26;11.00;95.80
20598;DHT22;10457;48.770;11.446;2023-02-18T00:53:48;11.10;94.80
20598;DHT22;10457;48.770;11.446;2023-02-18T00:59:09;11.00;94.60
20598;DHT22;10457;48.770;11.446;2023-02-18T01:04:32;11.00;94.70
20598;DHT22;10457;48.770;11.446;2023-02-18T01:09:53;11.10;93.90
20598;DHT22;10457;48.770;11.446;2023-02-18T01:15:16;11.00;94.30
20598;DHT22;10457;48.770;11.446;2023-02-18T01:20:40;11.10;94.10
20598;DHT22;10457;48.770;11.446;2023-02-18T01:26:03;11.00;94.00
20598;DHT22;10457;48.770;11.446;2023-02-18T01:31:24;11.10;94.40
20598;DHT22;10457;48.770;11.446;2023-02-18T01:36:48;11.00;94.30
20598;DHT22;10457;48.770;11.446;2023-02-18T01:42:17;11.10;95.00
20598;DHT22;10457;48.770;11.446;2023-02-18T01:47:40;11.20;93.20
20598;DHT22;10457;48.770;11.446;2023-02-18T01:53:03;11.10;92.60
20598;DHT22;10457;48.770;11.446;2023-02-18T01:58:25;11.10;92.10
20598;DHT22;10457;48.770;11.446;2023-02-18T02:03:46;11.10;92.10
20598;DHT22;10457;48.770;11.446;2023-02-18T02:09:12;11.20;91.00
20598;DHT22;10457;48.770;11.446;2023-02-18T02:14:51;11.20;90.60
20598;DHT22;10457;48.770;11.446;2023-02-18T02:20:47;11.20;89.90
20598;DHT22;10457;48.770;11.446;2023-02-18T02:26:56;11.30;89.20
20598;DHT22;10457;48.770;11.446;2023-02-18T02:38:53;11.20;88.40
20598;DHT22;10457;48.770;11.446;2023-02-18T02:44:20;11.20;88.70
20598;DHT22;10457;48.770;11.446;2023-02-18T02:49:48;11.30;87.40
20598;DHT22;10457;48.770;11.446;2023-02-18T02:55:15;11.20;86.70
20598;DHT22;10457;48.770;11.446;2023-02-18T03:00:46;11.20;86.70
20598;DHT22;10457;48.770;11.446;2023-02-18T03:06:26;11.30;86.20
20598;DHT22;10457;48.770;11.446;2023-02-18T03:12:02;11.30;86.00
20598;DHT22;10457;48.770;11.446;2023-02-18T03:17:30;11.30;85.50
20598;DHT22;10457;48.770;11.446;2023-02-18T03:22:55;11.30;85.60
20598;DHT22;10457;48.770;11.446;2023-02-18T03:28:22;11.30;85.70
20598;DHT22;10457;48.770;11.446;2023-02-18T03:33:47;11.30;85.50
20598;DHT22;10457;48.770;11.446;2023-02-18T03:39:14;11.30;86.00
20598;DHT22;10457;48.770;11.446;2023-02-18T03:44:38;11.30;86.30
20598;DHT22;10457;48.770;11.446;2023-02-18T03:50:00;11.30;86.30
20598;DHT22;10457;48.770;11.446;2023-02-18T03:55:21;11.20;87.30
20598;DHT22;10457;48.770;11.446;2023-02-18T04:00:44;11.30;87.50
20598;DHT22;10457;48.770;11.446;2023-02-18T04:06:06;11.30;87.90
20598;DHT22;10457;48.770;11.446;2023-02-18T04:11:28;11.20;88.40
20598;DHT22;10457;48.770;11.446;2023-02-18T04:16:51;11.30;87.90
20598;DHT22;10457;48.770;11.446;2023-02-18T04:22:12;11.30;87.80
20598;DHT22;10457;48.770;11.446;2023-02-18T04:27:34;11.20;87.90
20598;DHT22;10457;48.770;11.446;2023-02-18T04:32:57;11.20;87.00
20598;DHT22;10457;48.770;11.446;2023-02-18T04:38:18;11.10;87.60
20598;DHT22;10457;48.770;11.446;2023-02-18T04:43:39;11.20;86.80
20598;DHT22;10457;48.770;11.446;2023-02-18T04:49:02;11.20;86.60
20598;DHT22;10457;48.770;11.446;2023-02-18T04:54:23;11.20;86.50
20598;DHT22;10457;48.770;11.446;2023-02-18T04:59:45;11.20;86.70
20598;DHT22;10457;48.770;11.446;2023-02-18T05:05:08;11.20;86.20
20598;DHT22;10457;48.770;11.446;2023-02-18T05:10:30;11.20;85.80
20598;DHT22;10457;48.770;11.446;2023-02-18T05:15:51;11.20;85.90
20598;DHT22;10457;48.770;11.446;2023-02-18T05:21:14;11.20;85.70
20598;DHT22;10457;48.770;11.446;2023-02-18T05:26:36;11.10;86.10
20598;DHT22;10457;48.770;11.446;2023-02-18T05:31:57;11.10;86.60
20598;DHT22;10457;48.770;11.446;2023-02-18T05:37:20;11.10;86.80
20598;DHT22;10457;48.770;11.446;2023-02-18T05:42:42;11.20;86.60
20598;DHT22;10457;48.770;11.446;2023-02-18T05:48:03;11.20;86.60
20598;DHT22;10457;48.770;11.446;2023-02-18T05:53:26;11.20;86.50
20598;DHT22;10457;48.770;11.446;2023-02-18T05:58:48;11.20;86.70
20598;DHT22;10457;48.770;11.446;2023-02-18T06:04:10;11.20;86.60
20598;DHT22;10457;48.770;11.446;2023-02-18T06:09:33;11.20;86.50
20598;DHT22;10457;48.770;11.446;2023-02-18T06:14:54;11.20;86.60
20598;DHT22;10457;48.770;11.446;2023-02-18T06:20:16;11.20;85.90
20598;DHT22;10457;48.770;11.446;2023-02-18T06:25:38;11.10;86.20
20598;DHT22;10457;48.770;11.446;2023-02-18T06:31:00;11.20;85.90
20598;DHT22;10457;48.770;11.446;2023-02-18T06:36:21;11.10;85.90
20598;DHT22;10457;48.770;11.446;2023-02-18T06:41:44;11.20;85.70
20598;DHT22;10457;48.770;11.446;2023-02-18T06:47:05;11.10;85.60
20598;DHT22;10457;48.770;11.446;2023-02-18T06:52:27;11.20;85.00
20598;DHT22;10457;48.770;11.446;2023-02-18T06:57:51;11.30;84.90
20598;DHT22;10457;48.770;11.446;2023-02-18T07:03:13;11.20;84.20
20598;DHT22;10457;48.770;11.446;2023-02-18T07:08:34;11.30;83.80
20598;DHT22;10457;48.770;11.446;2023-02-18T07:13:57;11.20;83.70
20598;DHT22;10457;48.770;11.446;2023-02-18T07:19:19;11.30;83.10
20598;DHT22;10457;48.770;11.446;2023-02-18T07:24:41;11.40;82.80
20598;DHT22;10457;48.770;11.446;2023-02-18T07:30:05;11.40;81.70
20598;DHT22;10457;48.770;11.446;2023-02-18T07:35:27;11.50;81.60
20598;DHT22;10457;48.770;11.446;2023-02-18T07:40:49;11.50;81.50
20598;DHT22;10457;48.770;11.446;2023-02-18T07:46:12;11.60;80.70
20598;DHT22;10457;48.770;11.446;2023-02-18T07:51:34;11.60;80.50
20598;DHT22;10457;48.770;11.446;2023-02-18T07:56:57;11.60;80.80
20598;DHT22;10457;48.770;11.446;2023-02-18T08:02:21;11.70;81.00
20598;DHT22;10457;48.770;11.446;2023-02-18T08:07:43;11.70;80.70
20598;DHT22;10457;48.770;11.446;2023-02-18T08:13:05;11.80;80.60
20598;DHT22;10457;48.770;11.446;2023-02-18T08:18:28;11.80;80.30
20598;DHT22;10457;48.770;11.446;2023-02-18T08:23:49;12.00;80.10
20598;DHT22;10457;48.770;11.446;2023-02-18T08:29:11;12.00;80.10
20598;DHT22;10457;48.770;11.446;2023-02-18T08:34:34;12.20;79.50
20598;DHT22;10457;48.770;11.446;2023-02-18T08:39:55;12.40;78.80
20598;DHT22;10457;48.770;11.446;2023-02-18T08:45:17;12.50;77.90
20598;DHT22;10457;48.770;11.446;2023-02-18T08:50:40;12.50;78.00
20598;DHT22;10457;48.770;11.446;2023-02-18T08:56:05;12.80;76.70
20598;DHT22;10457;48.770;11.446;2023-02-18T09:01:27;12.80;75.20
20598;DHT22;10457;48.770;11.446;2023-02-18T09:06:50;13.00;75.50
20598;DHT22;10457;48.770;11.446;2023-02-18T09:12:11;13.00;74.70
20598;DHT22;10457;48.770;11.446;2023-02-18T09:17:33;13.10;74.40
20598;DHT22;10457;48.770;11.446;2023-02-18T09:22:56;13.10;74.00
20598;DHT22;10457;48.770;11.446;2023-02-18T09:28:17;13.00;74.10
20598;DHT22;10457;48.770;11.446;2023-02-18T09:33:41;13.00;74.50
20598;DHT22;10457;48.770;11.446;2023-02-18T09:39:05;13.00;75.00
20598;DHT22;10457;48.770;11.446;2023-02-18T09:44:31;13.00;74.00
20598;DHT22;10457;48.770;11.446;2023-02-18T09:49:58;12.90;74.30
20598;DHT22;10457;48.770;11.446;2023-02-18T09:55:27;12.80;75.60
20598;DHT22;10457;48.770;11.446;2023-02-18T10:01:02;13.00;74.60
20598;DHT22;10457;48.770;11.446;2023-02-18T10:06:29;13.00;74.30
20598;DHT22;10457;48.770;11.446;2023-02-18T10:11:56;13.10;74.10
20598;DHT22;10457;48.770;11.446;2023-02-18T10:17:20;13.10;72.60
20598;DHT22;10457;48.770;11.446;2023-02-18T10:22:42;13.10;73.20
20598;DHT22;10457;48.770;11.446;2023-02-18T10:28:05;13.20;73.70
20598;DHT22;10457;48.770;11.446;2023-02-18T10:33:38;13.50;72.40
20598;DHT22;10457;48.770;11.446;2023-02-18T10:45:07;13.80;70.10
20598;DHT22;10457;48.770;11.446;2023-02-18T10:50:36;13.70;69.60
20598;DHT22;10457;48.770;11.446;2023-02-18T10:55:58;14.00;68.60
20598;DHT22;10457;48.770;11.446;2023-02-18T11:01:22;14.20;68.50
20598;DHT22;10457;48.770;11.446;2023-02-18T11:06:45;13.90;69.30
20598;DHT22;10457;48.770;11.446;2023-02-18T11:12:14;14.30;67.50
20598;DHT22;10457;48.770;11.446;2023-02-18T11:17:41;14.70;67.70
20598;DHT22;10457;48.770;11.446;2023-02-18T11:23:15;16.50;60.90
20598;DHT22;10457;48.770;11.446;2023-02-18T11:28:41;16.00;61.50
20598;DHT22;10457;48.770;11.446;2023-02-18T11:34:05;15.40;63.90
20598;DHT22;10457;48.770;11.446;2023-02-18T11:39:35;15.40;62.80
20598;DHT22;10457;48.770;11.446;2023-02-18T11:44:58;15.20;64.00
20598;DHT22;10457;48.770;11.446;2023-02-18T11:50:22;14.50;65.90
20598;DHT22;10457;48.770;11.446;2023-02-18T11:55:53;14.30;67.30
20598;DHT22;10457;48.770;11.446;2023-02-18T12:01:27;14.40;67.30
20598;DHT22;10457;48.770;11.446;2023-02-18T12:07:04;14.60;66.30
20598;DHT22;10457;48.770;11.446;2023-02-18T12:12:39;14.50;66.20
20598;DHT22;10457;48.770;11.446;2023-02-18T12:18:23;14.50;65.70
20598;DHT22;10457;48.770;11.446;2023-02-18T12:24:01;15.10;64.60
20598;DHT22;10457;48.770;11.446;2023-02-18T12:29:41;15.20;63.20
20598;DHT22;10457;48.770;11.446;2023-02-18T12:35:38;15.20;62.60
20598;DHT22;10457;48.770;11.446;2023-02-18T12:41:16;16.80;58.50
20598;DHT22;10457;48.770;11.446;2023-02-18T12:47:07;16.90;54.70
20598;DHT22;10457;48.770;11.446;2023-02-18T12:52:54;16.40;53.90
20598;DHT22;10457;48.770;11.446;2023-02-18T12:58:34;15.70;54.40
20598;DHT22;10457;48.770;11.446;2023-02-18T13:04:22;15.40;56.10
20598;DHT22;10457;48.770;11.446;2023-02-18T13:09:59;15.40;56.40
20598;DHT22;10457;48.770;11.446;2023-02-18T13:15:36;15.20;57.80
20598;DHT22;10457;48.770;11.446;2023-02-18T13:21:02;15.00;57.60
20598;DHT22;10457;48.770;11.446;2023-02-18T13:26:25;14.90;58.00
20598;DHT22;10457;48.770;11.446;2023-02-18T13:32:00;14.60;56.90
20598;DHT22;10457;48.770;11.446;2023-02-18T13:37:34;14.60;56.90
20598;DHT22;10457;48.770;11.446;2023-02-18T13:43:18;14.50;57.10
20598;DHT22;10457;48.770;11.446;2023-02-18T13:48:45;14.50;56.90
20598;DHT22;10457;48.770;11.446;2023-02-18T13:54:17;14.60;57.00
20598;DHT22;10457;48.770;11.446;2023-02-18T13:59:44;14.60;57.10
20598;DHT22;10457;48.770;11.446;2023-02-18T14:05:21;14.80;56.40
20598;DHT22;10457;48.770;11.446;2023-02-18T14:11:30;16.20;54.50
20598;DHT22;10457;48.770;11.446;2023-02-18T14:17:31;16.60;52.10
20598;DHT22;10457;48.770;11.446;2023-02-18T14:22:56;16.60;52.90
20598;DHT22;10457;48.770;11.446;2023-02-18T14:28:41;16.10;54.20
20598;DHT22;10457;48.770;11.446;2023-02-18T14:46:29;14.40;57.70
20598;DHT22;10457;48.770;11.446;2023-02-18T14:51:56;14.60;58.00
20598;DHT22;10457;48.770;11.446;2023-02-18T14:57:28;14.50;58.10
20598;DHT22;10457;48.770;11.446;2023-02-18T15:02:54;14.40;59.00
20598;DHT22;10457;48.770;11.446;2023-02-18T15:08:17;14.30;59.00
20598;DHT22;10457;48.770;11.446;2023-02-18T15:13:41;14.20;59.40
20598;DHT22;10457;48.770;11.446;2023-02-18T15:19:10;14.10;59.80
20598;DHT22;10457;48.770;11.446;2023-02-18T15:24:35;13.90;60.20
20598;DHT22;10457;48.770;11.446;2023-02-18T15:30:11;13.80;61.10
20598;DHT22;10457;48.770;11.446;2023-02-18T15:35:41;13.80;61.10
20598;DHT22;10457;48.770;11.446;2023-02-18T15:41:09;13.60;62.20
20598;DHT22;10457;48.770;11.446;2023-02-18T15:46:32;13.60;61.90
20598;DHT22;10457;48.770;11.446;2023-02-18T15:51:56;13.50;62.30
20598;DHT22;10457;48.770;11.446;2023-02-18T15:57:22;13.40;62.80
20598;DHT22;10457;48.770;11.446;2023-02-18T16:02:53;13.30;63.00
20598;DHT22;10457;48.770;11.446;2023-02-18T16:08:23;13.30;63.20
20598;DHT22;10457;48.770;11.446;2023-02-18T16:13:47;13.30;63.40
20598;DHT22;10457;48.770;11.446;2023-02-18T16:19:22;13.20;63.80
20598;DHT22;10457;48.770;11.446;2023-02-18T16:24:48;13.20;63.80
20598;DHT22;10457;48.770;11.446;2023-02-18T16:30:14;13.10;64.30
20598;DHT22;10457;48.770;11.446;2023-02-18T16:35:37;13.10;64.50
20598;DHT22;10457;48.770;11.446;2023-02-18T16:41:00;13.00;64.70
20598;DHT22;10457;48.770;11.446;2023-02-18T16:46:22;13.00;64.80
20598;DHT22;10457;48.770;11.446;2023-02-18T16:51:45;13.00;65.20
20598;DHT22;10457;48.770;11.446;2023-02-18T16:57:08;12.90;65.80
20598;DHT22;10457;48.770;11.446;2023-02-18T17:02:30;12.90;66.00
20598;DHT22;10457;48.770;11.446;2023-02-18T17:07:52;12.80;66.50
20598;DHT22;10457;48.770;11.446;2023-02-18T17:13:15;12.80;66.70
20598;DHT22;10457;48.770;11.446;2023-02-18T17:18:37;12.80;66.90
20598;DHT22;10457;48.770;11.446;2023-02-18T17:23:59;12.70;66.80
20598;DHT22;10457;48.770;11.446;2023-02-18T17:29:22;12.70;67.00
20598;DHT22;10457;48.770;11.446;2023-02-18T17:34:43;12.70;66.70
20598;DHT22;10457;48.770;11.446;2023-02-18T17:40:07;12.70;66.90
20598;DHT22;10457;48.770;11.446;2023-02-18T17:45:35;12.70;67.00
20598;DHT22;10457;48.770;11.446;2023-02-18T17:50:57;12.60;67.00
20598;DHT22;10457;48.770;11.446;2023-02-18T17:56:18;12.60;66.90
20598;DHT22;10457;48.770;11.446;2023-02-18T18:01:41;12.60;66.50
20598;DHT22;10457;48.770;11.446;2023-02-18T18:07:03;12.60;66.90
20598;DHT22;10457;48.770;11.446;2023-02-18T18:12:30;12.70;66.50
20598;DHT22;10457;48.770;11.446;2023-02-18T18:17:53;12.60;66.40
20598;DHT22;10457;48.770;11.446;2023-02-18T18:23:16;12.50;66.50
20598;DHT22;10457;48.770;11.446;2023-02-18T18:28:38;12.50;66.70
20598;DHT22;10457;48.770;11.446;2023-02-18T18:34:01;12.40;66.90
20598;DHT22;10457;48.770;11.446;2023-02-18T18:39:23;12.40;67.00
20598;DHT22;10457;48.770;11.446;2023-02-18T18:44:45;12.40;67.00
20598;DHT22;10457;48.770;11.446;2023-02-18T18:50:08;12.30;67.60
20598;DHT22;10457;48.770;11.446;2023-02-18T18:55:31;12.30;67.80
20598;DHT22;10457;48.770;11.446;2023-02-18T19:00:55;12.20;68.30
20598;DHT22;10457;48.770;11.446;2023-02-18T19:06:19;12.20;68.70
20598;DHT22;10457;48.770;11.446;2023-02-18T19:11:41;12.10;72.20
20598;DHT22;10457;48.770;11.446;2023-02-18T19:17:03;11.90;75.20
20598;DHT22;10457;48.770;11.446;2023-02-18T19:22:27;11.90;76.60
20598;DHT22;10457;48.770;11.446;2023-02-18T19:27:49;11.80;78.40
20598;DHT22;10457;48.770;11.446;2023-02-18T19:33:12;11.70;78.60
20598;DHT22;10457;48.770;11.446;2023-02-18T19:38:35;11.60;79.70
20598;DHT22;10457;48.770;11.446;2023-02-18T19:43:57;11.60;81.70
20598;DHT22;10457;48.770;11.446;2023-02-18T19:49:18;11.50;82.30
20598;DHT22;10457;48.770;11.446;2023-02-18T19:54:41;11.40;84.30
20598;DHT22;10457;48.770;11.446;2023-02-18T20:00:04;11.20;87.30
20598;DHT22;10457;48.770;11.446;2023-02-18T20:05:35;11.00;89.60
20598;DHT22;10457;48.770;11.446;2023-02-18T20:10:59;11.00;90.70
20598;DHT22;10457;48.770;11.446;2023-02-18T20:16:20;11.00;90.50
20598;DHT22;10457;48.770;11.446;2023-02-18T20:21:43;10.80;90.80
20598;DHT22;10457;48.770;11.446;2023-02-18T20:27:06;10.80;91.60
20598;DHT22;10457;48.770;11.446;2023-02-18T20:32:29;10.80;92.00
20598;DHT22;10457;48.770;11.446;2023-02-18T20:37:50;10.70;93.00
20598;DHT22;10457;48.770;11.446;2023-02-18T20:43:13;10.60;94.50
20598;DHT22;10457;48.770;11.446;2023-02-18T20:48:36;10.50;96.80
20598;DHT22;10457;48.770;11.446;2023-02-18T20:53:57;10.50;97.20
20598;DHT22;10457;48.770;11.446;2023-02-18T20:59:20;10.40;97.50
20598;DHT22;10457;48.770;11.446;2023-02-18T21:04:43;10.40;98.10
20598;DHT22;10457;48.770;11.446;2023-02-18T21:10:06;10.40;98.90
20598;DHT22;10457;48.770;11.446;2023-02-18T21:15:29;10.40;99.20
20598;DHT22;10457;48.770;11.446;2023-02-18T21:20:53;10.30;99.10
20598;DHT22;10457;48.770;11.446;2023-02-18T21:26:16;10.30;99.90
20598;DHT22;10457;48.770;11.446;2023-02-18T21:31:44;10.30;99.90
20598;DHT22;10457;48.770;11.446;2023-02-18T21:37:05;10.20;99.90
20598;DHT22;10457;48.770;11.446;2023-02-18T21:42:26;10.20;99.90
20598;DHT22;10457;48.770;11.446;2023-02-18T21:47:50;10.20;99.90
20598;DHT22;10457;48.770;11.446;2023-02-18T21:53:11;10.20;99.90
20598;DHT22;10457;48.770;11.446;2023-02-18T21:58:36;10.20;99.90
20598;DHT22;10457;48.770;11.446;2023-02-18T22:03:59;10.20;99.90
20598;DHT22;10457;48.770;11.446;2023-02-18T22:09:21;10.20;99.90
20598;DHT22;10457;48.770;11.446;2023-02-18T22:14:43;10.20;99.90
20598;DHT22;10457;48.770;11.446;2023-02-18T22:20:07;10.10;99.90
20598;DHT22;10457;48.770;11.446;2023-02-18T22:25:29;10.20;99.90
20598;DHT22;10457;48.770;11.446;2023-02-18T22:30:50;10.10;99.90
20598;DHT22;10457;48.770;11.446;2023-02-18T22:36:14;10.10;99.90
20598;DHT22;10457;48.770;11.446;2023-02-18T22:41:36;10.10;99.90
20598;DHT22;10457;48.770;11.446;2023-02-18T22:46:58;10.10;99.90
20598;DHT22;10457;48.770;11.446;2023-02-18T22:52:29;10.10;99.90
20598;DHT22;10457;48.770;11.446;2023-02-18T22:57:51;10.10;99.90
20598;DHT22;10457;48.770;11.446;2023-02-18T23:03:17;10.00;99.90
20598;DHT22;10457;48.770;11.446;2023-02-18T23:08:40;10.00;99.90
20598;DHT22;10457;48.770;11.446;2023-02-18T23:14:04;10.00;99.90
20598;DHT22;10457;48.770;11.446;2023-02-18T23:19:43;10.00;99.90
20598;DHT22;10457;48.770;11.446;2023-02-18T23:25:09;10.00;99.90
20598;DHT22;10457;48.770;11.446;2023-02-18T23:30:30;10.00;99.90
20598;DHT22;10457;48.770;11.446;2023-02-18T23:35:52;9.90;99.90
20598;DHT22;10457;48.770;11.446;2023-02-18T23:41:16;9.90;99.90
20598;DHT22;10457;48.770;11.446;2023-02-18T23:46:38;9.90;99.90
20598;DHT22;10457;48.770;11.446;2023-02-18T23:52:02;9.80;99.90
20598;DHT22;10457;48.770;11.446;2023-02-18T23:57:29;9.80;99.90
